Time;durP1;ratioP1;P1;durP2;ratioP2;P2;SDS_P1;SDS_P2;PMS_P1;PMS_P2;Temp;Humidity;BMP_temperature;BMP_pressure;BME280_temperature;BME280_humidity;BME280_pressure;Samples;Min_cycle;Max_cycle;Signal;HPM_P1;HPM_P2
2021/12/10 00:02:22;;;;;;;10.13;7.95;;;;;;;;;;5112574;28;20092;-64
2021/12/10 00:04:49;;;;;;;11.18;8.18;;;;;;;;;;5112310;28;20529;-64
2021/12/10 00:07:17;;;;;;;12.27;8.35;;;;;;;;;;5111899;28;20048;-64
2021/12/10 00:09:44;;;;;;;10.95;7.93;;;;;;;;;;5112078;28;20611;-64
2021/12/10 00:12:14;;;;;;;13.77;8.20;;;;;;;;;;5112470;28;20047;-64
2021/12/10 00:14:41;;;;;;;11.38;8.35;;;;;;;;;;5111855;28;20043;-64
2021/12/10 00:17:09;;;;;;;11.93;8.77;;;;;;;;;;5112295;28;20047;-64
2021/12/10 00:19:40;;;;;;;11.65;8.30;;;;;;;;;;5112513;28;20455;-64
2021/12/10 00:22:09;;;;;;;12.32;8.63;;;;;;;;;;5111397;28;20130;-64
2021/12/10 00:24:35;;;;;;;11.93;8.23;;;;;;;;;;5112313;28;20035;-64
2021/12/10 00:27:04;;;;;;;9.88;7.55;;;;;;;;;;5112038;28;20100;-64
2021/12/10 00:29:31;;;;;;;11.27;7.68;;;;;;;;;;5111299;28;20438;-64
2021/12/10 00:32:01;;;;;;;11.65;8.10;;;;;;;;;;5111940;28;20116;-64
2021/12/10 00:34:29;;;;;;;11.88;8.05;;;;;;;;;;5112210;28;20140;-64
2021/12/10 00:36:57;;;;;;;11.95;7.65;;;;;;;;;;5111118;28;20044;-63
2021/12/10 00:39:25;;;;;;;11.25;7.63;;;;;;;;;;5111936;28;20494;-64
2021/12/10 00:41:52;;;;;;;13.23;8.10;;;;;;;;;;5111678;28;20575;-64
2021/12/10 00:44:18;;;;;;;11.88;7.82;;;;;;;;;;5111133;28;20092;-64
2021/12/10 00:46:46;;;;;;;13.50;8.13;;;;;;;;;;5111105;28;20043;-64
2021/12/10 00:49:12;;;;;;;11.90;7.90;;;;;;;;;;5111240;28;20052;-64
2021/12/10 00:51:39;;;;;;;10.77;7.93;;;;;;;;;;5111953;28;20055;-64
2021/12/10 00:54:06;;;;;;;12.45;8.18;;;;;;;;;;5111478;28;20168;-64
2021/12/10 00:56:32;;;;;;;11.48;7.95;;;;;;;;;;5111101;28;20043;-64
2021/12/10 00:58:58;;;;;;;10.50;7.85;;;;;;;;;;5111135;28;20051;-63
2021/12/10 01:01:27;;;;;;;13.20;8.43;;;;;;;;;;5111731;28;20047;-64
2021/12/10 01:03:56;;;;;;;13.35;8.75;;;;;;;;;;5110857;28;20048;-64
2021/12/10 01:06:22;;;;;;;12.57;8.50;;;;;;;;;;5111608;28;20551;-64
2021/12/10 01:08:51;;;;;;;14.60;9.10;;;;;;;;;;5111403;28;20105;-63
2021/12/10 01:11:21;;;;;;;14.43;8.73;;;;;;;;;;5110553;28;20051;-64
2021/12/10 01:13:49;;;;;;;13.13;8.38;;;;;;;;;;5111705;28;20058;-64
2021/12/10 01:23:45;;;;;;;11.82;9.02;;;;;;;;;;5111584;28;20039;-64
2021/12/10 01:24:52;;;;;;;13.15;9.27;;;;;;;;;;5110792;28;20529;-64
2021/12/10 01:27:30;;;;;;;15.48;9.50;;;;;;;;;;5111505;28;20139;-64
2021/12/10 01:29:58;;;;;;;12.70;9.60;;;;;;;;;;5110923;28;20062;-64
2021/12/10 01:32:25;;;;;;;13.65;10.23;;;;;;;;;;5110801;28;20051;-64
2021/12/10 01:34:53;;;;;;;13.20;9.85;;;;;;;;;;5111247;28;20073;-64
2021/12/10 01:37:19;;;;;;;13.05;9.77;;;;;;;;;;5111483;28;20047;-64
2021/12/10 01:39:46;;;;;;;14.70;10.60;;;;;;;;;;5110299;28;20047;-64
2021/12/10 01:42:18;;;;;;;14.45;10.00;;;;;;;;;;5111383;28;20047;-63
2021/12/10 01:44:45;;;;;;;13.30;9.88;;;;;;;;;;5110992;28;20237;-64
2021/12/10 01:47:13;;;;;;;13.45;9.65;;;;;;;;;;5110606;28;20047;-64
2021/12/10 01:49:40;;;;;;;13.48;10.38;;;;;;;;;;5111491;28;20097;-63
2021/12/10 01:52:08;;;;;;;12.43;10.02;;;;;;;;;;5111108;28;20039;-64
2021/12/10 01:54:40;;;;;;;13.98;10.43;;;;;;;;;;5110315;28;20566;-64
2021/12/10 01:57:07;;;;;;;14.95;10.63;;;;;;;;;;5110842;28;20044;-64
2021/12/10 01:59:34;;;;;;;13.80;9.85;;;;;;;;;;5112921;28;20059;-64
2021/12/10 02:02:03;;;;;;;11.52;9.23;;;;;;;;;;5114941;28;20073;-64
2021/12/10 02:04:30;;;;;;;11.80;9.32;;;;;;;;;;5115117;28;20047;-64
2021/12/10 02:06:56;;;;;;;16.27;10.23;;;;;;;;;;5113842;28;20088;-64
2021/12/10 02:09:24;;;;;;;15.73;10.48;;;;;;;;;;5114966;28;20093;-64
2021/12/10 02:11:51;;;;;;;13.13;10.80;;;;;;;;;;5114536;28;20055;-64
2021/12/10 02:14:18;;;;;;;14.85;10.27;;;;;;;;;;5114257;28;20047;-64
2021/12/10 02:16:44;;;;;;;13.20;10.02;;;;;;;;;;5114685;28;20208;-64
2021/12/10 02:19:12;;;;;;;12.15;10.05;;;;;;;;;;5114782;28;20048;-64
2021/12/10 02:21:40;;;;;;;14.20;9.70;;;;;;;;;;5114053;28;20088;-64
2021/12/10 02:24:07;;;;;;;13.40;9.40;;;;;;;;;;5114289;28;20044;-64
2021/12/10 02:26:36;;;;;;;10.82;9.18;;;;;;;;;;5114859;28;20043;-63
2021/12/10 02:29:02;;;;;;;11.63;9.35;;;;;;;;;;5113659;28;20047;-64
2021/12/10 02:31:29;;;;;;;13.85;9.77;;;;;;;;;;5114661;28;20051;-64
2021/12/10 02:33:56;;;;;;;12.50;8.77;;;;;;;;;;5114216;28;20058;-64
2021/12/10 02:36:22;;;;;;;13.32;9.35;;;;;;;;;;5113749;28;20044;-64
2021/12/10 02:38:50;;;;;;;12.93;9.20;;;;;;;;;;5114885;28;20047;-64
2021/12/10 02:41:18;;;;;;;11.48;8.13;;;;;;;;;;5114376;28;20044;-64
2021/12/10 02:43:45;;;;;;;11.48;8.52;;;;;;;;;;5113338;28;20044;-64
2021/12/10 02:46:11;;;;;;;11.50;8.40;;;;;;;;;;5114310;28;20073;-64
2021/12/10 02:48:38;;;;;;;10.68;8.23;;;;;;;;;;5113534;28;20043;-64
2021/12/10 02:51:06;;;;;;;9.88;7.72;;;;;;;;;;5113859;28;20051;-64
2021/12/10 02:53:35;;;;;;;12.13;7.80;;;;;;;;;;5113969;28;20055;-64
2021/12/10 02:56:04;;;;;;;12.57;8.45;;;;;;;;;;5113159;28;20079;-63
2021/12/10 02:58:30;;;;;;;13.15;7.85;;;;;;;;;;5113803;28;20047;-63
2021/12/10 03:01:01;;;;;;;9.85;7.32;;;;;;;;;;5113741;28;20039;-64
2021/12/10 03:03:27;;;;;;;10.73;7.53;;;;;;;;;;5113068;28;20695;-64
2021/12/10 03:05:54;;;;;;;11.85;7.72;;;;;;;;;;5113427;28;20047;-64
2021/12/10 03:08:21;;;;;;;10.18;7.13;;;;;;;;;;5113981;28;20043;-64
2021/12/10 03:10:47;;;;;;;12.77;7.65;;;;;;;;;;5112344;28;20047;-64
2021/12/10 03:13:15;;;;;;;12.40;7.38;;;;;;;;;;5113760;27;20085;-64
2021/12/10 03:15:42;;;;;;;9.35;6.93;;;;;;;;;;5113664;28;20383;-64
2021/12/10 03:18:10;;;;;;;10.43;7.05;;;;;;;;;;5113011;28;20043;-64
2021/12/10 03:20:36;;;;;;;8.77;6.50;;;;;;;;;;5113427;28;20455;-64
2021/12/10 03:23:04;;;;;;;10.23;7.15;;;;;;;;;;5113397;28;20096;-64
2021/12/10 03:25:30;;;;;;;8.55;6.30;;;;;;;;;;5112818;28;20044;-64
2021/12/10 03:27:56;;;;;;;10.00;6.75;;;;;;;;;;5113214;28;20043;-64
2021/12/10 03:30:25;;;;;;;8.63;5.88;;;;;;;;;;5113155;28;20043;-64
2021/12/10 03:32:52;;;;;;;12.48;6.60;;;;;;;;;;5112216;28;20047;-64
2021/12/10 03:35:22;;;;;;;9.38;6.30;;;;;;;;;;5113538;28;20081;-64
2021/12/10 03:37:48;;;;;;;7.68;5.88;;;;;;;;;;5112956;28;20040;-64
2021/12/10 03:40:16;;;;;;;7.32;5.97;;;;;;;;;;5112961;28;20451;-64
2021/12/10 03:42:42;;;;;;;9.10;6.05;;;;;;;;;;5112871;28;20047;-64
2021/12/10 03:45:10;;;;;;;10.23;5.97;;;;;;;;;;5112345;28;20116;-64
2021/12/10 03:47:37;;;;;;;8.57;5.95;;;;;;;;;;5112882;28;20051;-64
2021/12/10 03:50:05;;;;;;;7.40;5.57;;;;;;;;;;5112929;28;20093;-64
2021/12/10 03:52:31;;;;;;;9.43;5.95;;;;;;;;;;5112342;28;20051;-64
2021/12/10 03:54:59;;;;;;;7.43;5.93;;;;;;;;;;5112670;28;20043;-64
2021/12/10 03:57:25;;;;;;;7.90;5.90;;;;;;;;;;5112838;28;20541;-64
2021/12/10 03:59:52;;;;;;;8.05;5.78;;;;;;;;;;5111484;28;20051;-64
2021/12/10 04:02:18;;;;;;;11.10;5.80;;;;;;;;;;5112505;28;20108;-63
2021/12/10 04:04:47;;;;;;;8.50;5.95;;;;;;;;;;5112264;28;20455;-64
2021/12/10 04:07:15;;;;;;;9.02;5.15;;;;;;;;;;5111928;28;20040;-64
2021/12/10 04:09:41;;;;;;;8.52;5.55;;;;;;;;;;5112620;28;20039;-64
2021/12/10 04:12:10;;;;;;;8.90;5.50;;;;;;;;;;5112409;28;20112;-64
2021/12/10 04:14:37;;;;;;;7.20;4.78;;;;;;;;;;5111852;28;20043;-64
2021/12/10 04:17:04;;;;;;;7.65;5.35;;;;;;;;;;5112219;28;20100;-64
2021/12/10 04:19:32;;;;;;;8.70;5.22;;;;;;;;;;5112582;28;20075;-64
2021/12/10 04:22:01;;;;;;;8.38;4.95;;;;;;;;;;5110454;28;20525;-64
2021/12/10 04:24:28;;;;;;;8.02;5.40;;;;;;;;;;5112337;28;20048;-64
2021/12/10 04:26:55;;;;;;;7.57;5.20;;;;;;;;;;5111897;27;20047;-64
2021/12/10 04:29:21;;;;;;;6.38;4.30;;;;;;;;;;5111374;28;20044;-63
2021/12/10 04:31:47;;;;;;;8.25;4.90;;;;;;;;;;5111935;28;20052;-64
2021/12/10 04:34:14;;;;;;;7.70;5.20;;;;;;;;;;5111488;28;20116;-64
2021/12/10 04:36:41;;;;;;;6.97;5.18;;;;;;;;;;5112258;28;20048;-64
2021/12/10 04:39:08;;;;;;;7.07;4.95;;;;;;;;;;5112123;28;20060;-64
2021/12/10 04:41:35;;;;;;;8.48;4.93;;;;;;;;;;5111127;28;20081;-64
2021/12/10 04:44:01;;;;;;;6.88;4.82;;;;;;;;;;5112011;28;20048;-64
2021/12/10 04:46:27;;;;;;;8.00;5.15;;;;;;;;;;5111871;28;20546;-64
2021/12/10 04:48:57;;;;;;;5.93;4.90;;;;;;;;;;5110954;28;20093;-64
2021/12/10 04:51:25;;;;;;;6.32;4.70;;;;;;;;;;5111674;28;20565;-64
2021/12/10 04:53:51;;;;;;;8.20;5.00;;;;;;;;;;5111556;28;20047;-64
2021/12/10 04:56:19;;;;;;;8.60;4.97;;;;;;;;;;5111045;28;20079;-64
2021/12/10 04:58:45;;;;;;;7.15;4.70;;;;;;;;;;5111398;28;20052;-64
2021/12/10 05:01:12;;;;;;;7.82;4.50;;;;;;;;;;5111827;28;20043;-64
2021/12/10 05:03:38;;;;;;;8.15;4.78;;;;;;;;;;5111221;28;20070;-64
2021/12/10 05:06:04;;;;;;;6.13;4.43;;;;;;;;;;5111470;28;20051;-64
2021/12/10 05:08:31;;;;;;;10.40;5.25;;;;;;;;;;5111642;28;20097;-64
2021/12/10 05:10:58;;;;;;;7.85;4.70;;;;;;;;;;5110537;28;20043;-64
2021/12/10 05:13:26;;;;;;;7.18;4.78;;;;;;;;;;5112442;28;20043;-64
2021/12/10 05:15:57;;;;;;;7.30;4.40;;;;;;;;;;5111495;28;20072;-64
2021/12/10 05:18:24;;;;;;;9.90;4.88;;;;;;;;;;5110798;28;20047;-64
2021/12/10 05:20:51;;;;;;;6.72;4.32;;;;;;;;;;5111280;28;20543;-64
2021/12/10 05:23:17;;;;;;;6.15;4.13;;;;;;;;;;5111164;28;20052;-64
2021/12/10 05:25:43;;;;;;;6.22;4.32;;;;;;;;;;5111058;28;20100;-64
2021/12/10 05:28:10;;;;;;;9.75;4.78;;;;;;;;;;5111651;28;20047;-63
2021/12/10 05:30:37;;;;;;;5.82;4.15;;;;;;;;;;5110808;28;20048;-64
2021/12/10 05:33:04;;;;;;;6.57;4.05;;;;;;;;;;5113118;28;20134;-64
2021/12/10 05:35:31;;;;;;;6.50;4.18;;;;;;;;;;5115612;28;20066;-64
2021/12/10 05:37:57;;;;;;;6.63;4.68;;;;;;;;;;5114467;28;20108;-64
2021/12/10 05:40:24;;;;;;;8.50;4.03;;;;;;;;;;5115609;28;20047;-64
2021/12/10 05:42:50;;;;;;;6.35;3.78;;;;;;;;;;5115326;28;20047;-64
2021/12/10 05:45:18;;;;;;;5.82;4.25;;;;;;;;;;5115040;28;20047;-64
2021/12/10 05:47:46;;;;;;;6.55;3.97;;;;;;;;;;5115085;28;20105;-64
2021/12/10 05:50:13;;;;;;;7.68;4.63;;;;;;;;;;5115305;28;20039;-64
2021/12/10 05:52:39;;;;;;;7.00;3.70;;;;;;;;;;5114544;28;20101;-64
2021/12/10 05:55:06;;;;;;;7.53;3.58;;;;;;;;;;5115102;28;20048;-64
2021/12/10 05:57:32;;;;;;;5.78;3.83;;;;;;;;;;5115316;27;20081;-64
2021/12/10 05:59:58;;;;;;;6.55;4.10;;;;;;;;;;5113841;28;20489;-64
2021/12/10 06:02:25;;;;;;;6.82;3.80;;;;;;;;;;5114947;28;20093;-64
2021/12/10 06:04:52;;;;;;;5.07;3.63;;;;;;;;;;5114780;28;20436;-64
2021/12/10 06:07:19;;;;;;;5.88;4.03;;;;;;;;;;5114277;28;20043;-64
2021/12/10 06:09:45;;;;;;;8.20;4.13;;;;;;;;;;5114707;28;20054;-64
2021/12/10 06:12:14;;;;;;;5.32;3.40;;;;;;;;;;5114905;28;20047;-64
2021/12/10 06:14:40;;;;;;;7.45;3.70;;;;;;;;;;5114047;28;20048;-63
2021/12/10 06:17:06;;;;;;;5.70;3.42;;;;;;;;;;5114664;28;20055;-64
2021/12/10 06:19:33;;;;;;;6.72;3.72;;;;;;;;;;5114408;28;20436;-64
2021/12/10 06:22:00;;;;;;;7.68;3.88;;;;;;;;;;5114219;28;20077;-64
2021/12/10 06:24:27;;;;;;;5.82;3.85;;;;;;;;;;5114660;28;20051;-64
2021/12/10 06:26:53;;;;;;;9.50;4.05;;;;;;;;;;5113534;28;20071;-64
2021/12/10 06:29:22;;;;;;;6.75;3.42;;;;;;;;;;5114632;28;20087;-64
2021/12/10 06:31:48;;;;;;;8.25;4.07;;;;;;;;;;5114561;28;20040;-64
2021/12/10 06:34:14;;;;;;;9.50;4.50;;;;;;;;;;5113426;28;20093;-64
2021/12/10 06:36:41;;;;;;;7.55;3.80;;;;;;;;;;5114671;28;20066;-64
2021/12/10 06:39:09;;;;;;;6.60;3.30;;;;;;;;;;5114450;28;20104;-64
2021/12/10 06:41:36;;;;;;;8.20;4.20;;;;;;;;;;5113615;28;20113;-64
2021/12/10 06:44:04;;;;;;;7.32;4.10;;;;;;;;;;5113086;28;20252;-64
2021/12/10 06:46:30;;;;;;;8.30;4.13;;;;;;;;;;5114072;28;20035;-64
2021/12/10 06:48:57;;;;;;;6.95;3.92;;;;;;;;;;5113152;28;20093;-64
2021/12/10 06:51:23;;;;;;;7.95;4.35;;;;;;;;;;5114100;28;20048;-64
2021/12/10 06:53:49;;;;;;;8.93;3.95;;;;;;;;;;5113996;28;20382;-64
2021/12/10 06:56:18;;;;;;;9.52;3.75;;;;;;;;;;5113189;28;20044;-64
2021/12/10 06:58:46;;;;;;;6.28;3.92;;;;;;;;;;5113465;28;20380;-64
2021/12/10 07:01:16;;;;;;;7.90;4.00;;;;;;;;;;5113738;28;20047;-64
2021/12/10 07:03:46;;;;;;;9.40;4.13;;;;;;;;;;5113111;28;20055;-64
2021/12/10 07:06:13;;;;;;;7.90;4.00;;;;;;;;;;5113791;28;20584;-64
2021/12/10 07:08:40;;;;;;;7.43;3.97;;;;;;;;;;5113955;28;20044;-64
2021/12/10 07:11:08;;;;;;;7.78;3.67;;;;;;;;;;5112793;28;20193;-64
2021/12/10 07:13:36;;;;;;;10.07;4.25;;;;;;;;;;5113659;28;20117;-64
2021/12/10 07:16:03;;;;;;;8.05;3.88;;;;;;;;;;5113047;28;20187;-64
2021/12/10 07:18:30;;;;;;;7.43;3.75;;;;;;;;;;5113853;28;20047;-64
2021/12/10 07:20:56;;;;;;;6.82;3.70;;;;;;;;;;5113291;28;20044;-64
2021/12/10 07:23:23;;;;;;;9.65;3.70;;;;;;;;;;5113049;28;20044;-64
2021/12/10 07:25:49;;;;;;;8.10;3.88;;;;;;;;;;5113250;28;20047;-64
2021/12/10 07:28:16;;;;;;;6.95;3.50;;;;;;;;;;5113264;28;20044;-64
2021/12/10 07:30:44;;;;;;;7.65;3.67;;;;;;;;;;5112444;28;20047;-64
2021/12/10 07:33:10;;;;;;;8.95;4.30;;;;;;;;;;5113266;28;20101;-64
2021/12/10 07:35:37;;;;;;;8.65;3.90;;;;;;;;;;5113413;28;20100;-64
2021/12/10 07:38:03;;;;;;;6.97;3.50;;;;;;;;;;5112248;28;20070;-64
2021/12/10 07:40:31;;;;;;;7.10;3.58;;;;;;;;;;5113396;28;20047;-64
2021/12/10 07:42:57;;;;;;;10.02;4.38;;;;;;;;;;5112925;28;20108;-62
2021/12/10 07:45:25;;;;;;;7.63;3.20;;;;;;;;;;5112373;28;20048;-62
2021/12/10 07:47:54;;;;;;;9.30;3.70;;;;;;;;;;5113136;28;20100;-62
2021/12/10 07:50:23;;;;;;;8.52;3.40;;;;;;;;;;5112987;28;20502;-62
2021/12/10 07:52:50;;;;;;;5.65;3.40;;;;;;;;;;5111861;28;20478;-63
2021/12/10 07:55:17;;;;;;;5.95;3.30;;;;;;;;;;5112950;28;20138;-61
2021/12/10 07:57:43;;;;;;;9.55;3.50;;;;;;;;;;5112673;28;20043;-62
2021/12/10 08:00:12;;;;;;;8.30;3.58;;;;;;;;;;5091762;28;20056;-65
2021/12/10 08:02:39;;;;;;;9.15;3.47;;;;;;;;;;5092604;28;20451;-65
2021/12/10 08:05:08;;;;;;;6.07;3.30;;;;;;;;;;5091607;28;20048;-65
2021/12/10 08:07:34;;;;;;;8.18;3.70;;;;;;;;;;5092284;28;20105;-64
2021/12/10 08:10:00;;;;;;;6.38;3.47;;;;;;;;;;5092050;28;20193;-62
2021/12/10 08:12:26;;;;;;;8.00;3.42;;;;;;;;;;5091614;28;20052;-62
2021/12/10 08:14:55;;;;;;;8.30;3.47;;;;;;;;;;5092222;28;20113;-62
2021/12/10 08:17:22;;;;;;;9.38;3.35;;;;;;;;;;5092323;28;20138;-62
2021/12/10 08:19:49;;;;;;;6.78;3.45;;;;;;;;;;5091220;28;20053;-62
2021/12/10 08:22:16;;;;;;;6.65;3.50;;;;;;;;;;5092076;28;20090;-62
2021/12/10 08:24:43;;;;;;;7.47;3.10;;;;;;;;;;5091811;28;20048;-62
2021/12/10 08:27:09;;;;;;;7.57;3.63;;;;;;;;;;5091541;28;20047;-62
2021/12/10 08:29:36;;;;;;;6.93;3.50;;;;;;;;;;5092454;28;20048;-62
2021/12/10 08:32:02;;;;;;;6.78;3.40;;;;;;;;;;5111258;28;20510;-61
2021/12/10 08:34:29;;;;;;;9.20;3.45;;;;;;;;;;5111668;28;20100;-61
2021/12/10 08:36:55;;;;;;;7.15;3.40;;;;;;;;;;5111823;28;20048;-61
2021/12/10 08:39:23;;;;;;;7.55;3.22;;;;;;;;;;5112054;28;20188;-62
2021/12/10 08:41:49;;;;;;;4.80;2.90;;;;;;;;;;5111190;28;20366;-62
2021/12/10 08:44:15;;;;;;;8.02;3.40;;;;;;;;;;5112266;28;20051;-63
2021/12/10 08:46:43;;;;;;;10.05;3.13;;;;;;;;;;5112069;28;20051;-62
2021/12/10 08:49:09;;;;;;;7.38;3.03;;;;;;;;;;5111899;28;20043;-61
2021/12/10 08:51:37;;;;;;;4.93;2.85;;;;;;;;;;5111785;28;20474;-62
2021/12/10 08:54:03;;;;;;;7.75;3.22;;;;;;;;;;5111856;28;20187;-62
2021/12/10 08:56:31;;;;;;;7.85;3.10;;;;;;;;;;5111403;28;20122;-62
2021/12/10 08:58:58;;;;;;;9.65;3.70;;;;;;;;;;5111508;28;20052;-62
2021/12/10 09:01:25;;;;;;;7.38;3.63;;;;;;;;;;5111412;28;20051;-62
2021/12/10 09:03:53;;;;;;;5.47;2.90;;;;;;;;;;5111456;28;20044;-62
2021/12/10 09:06:22;;;;;;;6.90;3.13;;;;;;;;;;5111736;28;20379;-62
2021/12/10 09:08:48;;;;;;;7.70;3.20;;;;;;;;;;5110075;28;20052;-62
2021/12/10 09:11:15;;;;;;;8.07;3.30;;;;;;;;;;5111965;28;20104;-63
2021/12/10 09:13:43;;;;;;;7.90;3.20;;;;;;;;;;5111720;28;20100;-62
2021/12/10 09:16:13;;;;;;;5.07;2.97;;;;;;;;;;5110928;28;20101;-64
2021/12/10 09:18:40;;;;;;;7.88;3.35;;;;;;;;;;5111758;28;20047;-64
2021/12/10 09:21:08;;;;;;;8.35;3.80;;;;;;;;;;5111669;28;20047;-64
2021/12/10 09:23:35;;;;;;;7.28;3.10;;;;;;;;;;5110928;28;20048;-64
2021/12/10 09:26:02;;;;;;;6.22;3.30;;;;;;;;;;5112444;28;20066;-64
2021/12/10 09:28:29;;;;;;;9.23;3.90;;;;;;;;;;5111841;28;20047;-64
2021/12/10 09:30:58;;;;;;;8.68;3.50;;;;;;;;;;5110491;28;20097;-64
2021/12/10 09:33:25;;;;;;;6.20;3.28;;;;;;;;;;5111510;28;20048;-64
2021/12/10 09:35:51;;;;;;;7.25;3.60;;;;;;;;;;5111468;28;20044;-64
2021/12/10 09:38:19;;;;;;;8.98;3.33;;;;;;;;;;5110915;28;20097;-64
2021/12/10 09:40:48;;;;;;;6.80;3.45;;;;;;;;;;5111230;28;20143;-64
2021/12/10 09:43:14;;;;;;;7.05;3.50;;;;;;;;;;5111452;28;20048;-64
2021/12/10 09:45:42;;;;;;;6.53;3.70;;;;;;;;;;5110644;28;20101;-64
2021/12/10 09:48:11;;;;;;;6.65;3.60;;;;;;;;;;5111665;28;20040;-67
2021/12/10 09:50:39;;;;;;;6.47;3.28;;;;;;;;;;5110813;28;20040;-67
2021/12/10 09:53:06;;;;;;;5.97;3.55;;;;;;;;;;5111364;28;20096;-67
2021/12/10 09:55:33;;;;;;;6.30;3.50;;;;;;;;;;5111399;28;20047;-67
2021/12/10 09:57:59;;;;;;;6.63;3.60;;;;;;;;;;5110355;28;20193;-67
2021/12/10 10:00:27;;;;;;;7.82;3.58;;;;;;;;;;5111129;28;20460;-67
2021/12/10 10:02:54;;;;;;;7.20;3.55;;;;;;;;;;5111145;28;20096;-67
2021/12/10 10:05:26;;;;;;;8.18;3.17;;;;;;;;;;5110718;28;20051;-67
2021/12/10 10:07:54;;;;;;;8.25;3.60;;;;;;;;;;5111108;28;20070;-67
2021/12/10 10:10:21;;;;;;;8.20;3.80;;;;;;;;;;5111299;28;20043;-64
2021/12/10 10:12:49;;;;;;;9.93;3.80;;;;;;;;;;5110257;28;20047;-65
2021/12/10 10:15:17;;;;;;;8.00;3.88;;;;;;;;;;5111092;28;20097;-65
2021/12/10 10:17:44;;;;;;;7.57;3.47;;;;;;;;;;5111229;28;20055;-63
2021/12/10 10:20:11;;;;;;;6.60;3.35;;;;;;;;;;5112553;28;20386;-64
2021/12/10 10:22:39;;;;;;;6.95;3.70;;;;;;;;;;5114924;28;20101;-64
2021/12/10 10:25:08;;;;;;;6.60;3.38;;;;;;;;;;5114457;28;20077;-62
2021/12/10 10:27:35;;;;;;;7.32;4.00;;;;;;;;;;5113897;28;20504;-62
2021/12/10 10:30:07;;;;;;;7.30;3.88;;;;;;;;;;5114364;28;20048;-62
2021/12/10 10:32:34;;;;;;;6.05;3.38;;;;;;;;;;5115003;28;20096;-63
2021/12/10 10:35:06;;;;;;;6.95;3.65;;;;;;;;;;5113611;28;20165;-64
2021/12/10 10:37:32;;;;;;;9.73;3.35;;;;;;;;;;5114711;28;20049;-63
2021/12/10 10:40:01;;;;;;;5.78;3.30;;;;;;;;;;5113389;28;20047;-68
2021/12/10 10:42:28;;;;;;;6.85;3.20;;;;;;;;;;5114549;28;20097;-66
2021/12/10 10:44:56;;;;;;;7.30;3.58;;;;;;;;;;5114128;28;20092;-65
2021/12/10 10:47:24;;;;;;;5.45;3.28;;;;;;;;;;5113751;28;20109;-65
2021/12/10 10:49:51;;;;;;;6.75;3.20;;;;;;;;;;5114080;28;20051;-64
2021/12/10 10:52:21;;;;;;;8.75;3.30;;;;;;;;;;5114323;28;20116;-64
2021/12/10 10:54:50;;;;;;;11.38;3.25;;;;;;;;;;5113028;28;20486;-67
2021/12/10 10:57:20;;;;;;;13.77;3.85;;;;;;;;;;5114328;28;20048;-63
2021/12/10 10:59:49;;;;;;;12.20;3.67;;;;;;;;;;5113777;28;20047;-63
2021/12/10 11:02:15;;;;;;;13.68;4.00;;;;;;;;;;5113415;28;20048;-62
2021/12/10 11:04:43;;;;;;;7.60;2.85;;;;;;;;;;5113931;28;20051;-62
2021/12/10 11:07:11;;;;;;;10.20;3.45;;;;;;;;;;5114607;28;20101;-65
2021/12/10 11:09:42;;;;;;;14.10;3.55;;;;;;;;;;5115255;27;20051;-63
2021/12/10 11:12:13;;;;;;;11.32;4.22;;;;;;;;;;5113885;28;20444;-64
2021/12/10 11:14:43;;;;;;;9.77;3.65;;;;;;;;;;5114001;28;20079;-62
2021/12/10 11:17:11;;;;;;;11.13;3.00;;;;;;;;;;5113250;28;20048;-63
2021/12/10 11:19:37;;;;;;;10.10;3.83;;;;;;;;;;5113867;28;20391;-63
2021/12/10 11:22:04;;;;;;;11.32;3.90;;;;;;;;;;5110808;28;20036;-62
2021/12/10 11:24:34;;;;;;;11.38;3.53;;;;;;;;;;5113545;28;20052;-62
2021/12/10 11:27:03;;;;;;;9.80;4.60;;;;;;;;;;5113422;28;20052;-62
2021/12/10 11:29:41;;;;;;;10.35;4.47;;;;;;;;;;5113178;28;20048;-62
2021/12/10 11:32:11;;;;;;;12.32;4.40;;;;;;;;;;5092573;28;20105;-64
2021/12/10 11:34:41;;;;;;;12.50;4.30;;;;;;;;;;5092883;28;20048;-67
2021/12/10 11:37:09;;;;;;;11.48;4.07;;;;;;;;;;5092308;28;20048;-63
2021/12/10 11:39:42;;;;;;;11.77;4.40;;;;;;;;;;5092997;28;20040;-64
2021/12/10 11:42:23;;;;;;;12.57;4.13;;;;;;;;;;5093210;28;20052;-64
2021/12/10 11:45:05;;;;;;;11.02;3.67;;;;;;;;;;5091743;28;20504;-63
2021/12/10 11:47:43;;;;;;;13.23;3.95;;;;;;;;;;5092873;28;20040;-64
2021/12/10 11:50:16;;;;;;;14.18;3.83;;;;;;;;;;5092534;28;20040;-64
2021/12/10 11:52:42;;;;;;;11.73;3.20;;;;;;;;;;5092287;28;20052;-64
2021/12/10 11:55:10;;;;;;;11.45;3.45;;;;;;;;;;5092677;28;20453;-64
2021/12/10 11:57:38;;;;;;;9.27;3.03;;;;;;;;;;5091668;28;20048;-63
2021/12/10 12:00:07;;;;;;;9.93;3.30;;;;;;;;;;5111863;28;20054;-64
2021/12/10 12:02:37;;;;;;;9.40;3.15;;;;;;;;;;5113002;28;20047;-63
2021/12/10 12:05:07;;;;;;;9.48;3.38;;;;;;;;;;5111930;27;20435;-63
2021/12/10 12:07:35;;;;;;;11.50;3.10;;;;;;;;;;5112783;28;20096;-64
2021/12/10 12:10:05;;;;;;;11.13;3.55;;;;;;;;;;5112373;28;20505;-64
2021/12/10 12:12:37;;;;;;;8.68;3.22;;;;;;;;;;5111775;28;20051;-64
2021/12/10 12:15:10;;;;;;;9.18;3.53;;;;;;;;;;5112195;28;20521;-65
2021/12/10 12:17:38;;;;;;;7.53;2.80;;;;;;;;;;5113169;28;20040;-65
2021/12/10 12:20:22;;;;;;;9.27;3.08;;;;;;;;;;5111235;28;20044;-65
2021/12/10 12:25:39;;;;;;;8.18;2.70;;;;;;;;;;5111810;28;20058;-65
2021/12/10 12:28:06;;;;;;;8.48;2.95;;;;;;;;;;5112101;28;20039;-63
2021/12/10 12:30:32;;;;;;;9.82;2.95;;;;;;;;;;5112084;28;20397;-63
2021/12/10 12:32:59;;;;;;;7.25;2.60;;;;;;;;;;5111112;28;20089;-63
2021/12/10 12:35:29;;;;;;;10.05;3.10;;;;;;;;;;5111709;28;20043;-62
2021/12/10 12:38:06;;;;;;;11.15;3.20;;;;;;;;;;5110982;28;20044;-62
2021/12/10 12:40:33;;;;;;;11.27;3.10;;;;;;;;;;5111409;28;20040;-61
2021/12/10 12:43:04;;;;;;;6.80;2.78;;;;;;;;;;5111185;28;20482;-61
2021/12/10 12:45:31;;;;;;;9.27;2.50;;;;;;;;;;5112159;28;20047;-61
2021/12/10 12:47:57;;;;;;;9.27;2.95;;;;;;;;;;5111094;28;20070;-61
2021/12/10 12:50:25;;;;;;;8.75;2.80;;;;;;;;;;5112130;28;20052;-61
2021/12/10 12:52:54;;;;;;;8.13;3.08;;;;;;;;;;5111662;28;20661;-61
2021/12/10 12:55:30;;;;;;;10.15;2.70;;;;;;;;;;5111165;28;20047;-61
2021/12/10 12:57:59;;;;;;;8.77;3.00;;;;;;;;;;5111809;28;20105;-61
2021/12/10 13:00:28;;;;;;;17.88;3.00;;;;;;;;;;5111717;28;20058;-61
2021/12/10 13:03:01;;;;;;;13.18;3.42;;;;;;;;;;5111599;28;20047;-61
2021/12/10 13:05:35;;;;;;;9.70;2.75;;;;;;;;;;5111718;28;20096;-62
2021/12/10 13:08:06;;;;;;;13.35;3.63;;;;;;;;;;5110625;28;20124;-62
2021/12/10 13:10:36;;;;;;;9.55;2.78;;;;;;;;;;5111203;28;20039;-61
2021/12/10 13:13:11;;;;;;;11.57;2.80;;;;;;;;;;5111308;28;20051;-61
2021/12/10 13:15:38;;;;;;;10.75;3.20;;;;;;;;;;5111104;28;20444;-61
2021/12/10 13:18:07;;;;;;;11.77;3.15;;;;;;;;;;5111350;28;20561;-61
2021/12/10 13:20:36;;;;;;;17.45;3.55;;;;;;;;;;5111650;28;20138;-60
2021/12/10 13:23:05;;;;;;;10.70;2.72;;;;;;;;;;5110601;28;20670;-61
2021/12/10 13:25:33;;;;;;;18.52;3.33;;;;;;;;;;5111439;28;20104;-61
2021/12/10 13:28:01;;;;;;;13.77;2.80;;;;;;;;;;5111245;28;20413;-61
2021/12/10 13:30:29;;;;;;;10.80;2.80;;;;;;;;;;5110282;28;20040;-61
2021/12/10 13:32:56;;;;;;;11.07;2.97;;;;;;;;;;5111088;28;20444;-61
2021/12/10 13:35:23;;;;;;;13.60;3.70;;;;;;;;;;5111560;28;20051;-61
2021/12/10 13:37:51;;;;;;;12.85;3.17;;;;;;;;;;5110525;28;20044;-61
2021/12/10 13:40:18;;;;;;;21.02;3.90;;;;;;;;;;5111610;28;20044;-61
2021/12/10 13:42:46;;;;;;;27.85;4.10;;;;;;;;;;5110555;28;20057;-61
2021/12/10 13:45:12;;;;;;;19.02;3.97;;;;;;;;;;5111407;28;20046;-61
2021/12/10 13:47:41;;;;;;;19.48;3.78;;;;;;;;;;5111303;28;20050;-61
2021/12/10 13:50:09;;;;;;;11.20;3.33;;;;;;;;;;5110603;28;20459;-61
2021/12/10 13:52:43;;;;;;;9.75;3.40;;;;;;;;;;5111561;28;20070;-61
2021/12/10 13:55:14;;;;;;;17.77;4.03;;;;;;;;;;5114637;28;20043;-61
2021/12/10 13:57:40;;;;;;;20.55;4.32;;;;;;;;;;5114667;28;20040;-61
2021/12/10 14:00:09;;;;;;;13.77;3.30;;;;;;;;;;5114760;28;20043;-61
2021/12/10 14:02:37;;;;;;;11.77;2.90;;;;;;;;;;5115148;28;20040;-61
2021/12/10 14:05:18;;;;;;;11.75;3.42;;;;;;;;;;5114180;28;20055;-63
2021/12/10 14:07:49;;;;;;;8.68;3.28;;;;;;;;;;5114740;28;20044;-61
2021/12/10 14:10:22;;;;;;;8.30;3.33;;;;;;;;;;5114992;28;20104;-62
2021/12/10 14:12:48;;;;;;;8.48;2.90;;;;;;;;;;5114233;28;20055;-63
2021/12/10 14:15:19;;;;;;;8.18;2.95;;;;;;;;;;5114843;27;20047;-62
2021/12/10 14:17:47;;;;;;;8.45;3.00;;;;;;;;;;5114691;28;20082;-62
2021/12/10 14:20:18;;;;;;;7.00;2.63;;;;;;;;;;5113713;28;20036;-62
2021/12/10 14:22:49;;;;;;;8.40;3.03;;;;;;;;;;5114448;28;20048;-63
2021/12/10 14:25:26;;;;;;;9.20;3.10;;;;;;;;;;5113788;28;20482;-62
2021/12/10 14:27:56;;;;;;;8.77;2.90;;;;;;;;;;5114581;28;20036;-62
2021/12/10 14:30:27;;;;;;;10.45;3.05;;;;;;;;;;5114630;28;20445;-64
2021/12/10 14:32:59;;;;;;;7.78;2.78;;;;;;;;;;5113618;28;20074;-63
2021/12/10 14:35:25;;;;;;;8.70;3.05;;;;;;;;;;5114493;28;20490;-61
2021/12/10 14:37:59;;;;;;;6.30;2.63;;;;;;;;;;5114504;28;20046;-62
2021/12/10 14:40:27;;;;;;;10.48;2.92;;;;;;;;;;5113845;28;20060;-61
2021/12/10 14:43:17;;;;;;;10.20;2.60;;;;;;;;;;5113274;28;20039;-61
2021/12/10 14:45:56;;;;;;;7.35;2.72;;;;;;;;;;5095456;28;20436;-60
2021/12/10 14:48:23;;;;;;;14.45;2.75;;;;;;;;;;5114254;28;20040;-61
2021/12/10 14:50:57;;;;;;;13.63;2.83;;;;;;;;;;5114160;28;20108;-60
2021/12/10 14:53:25;;;;;;;8.55;3.08;;;;;;;;;;5113492;28;20051;-61